Main page
METAR-TAF:

METAR-TAF

Airports :

Zahedan Airport

Zahedan, Iran

latitude: 29-28N, longitude: 060-53E, elevation: 1370 m

Current weather observation

The report was made 45 minutes ago, at 13:00 UTC
Wind 12 kt from the Southeast
Temperature 14°C
Humidity 33%
Pressure 1021 hPa
Visibility 10 km or more
no clouds below 1500 m and no cumulonimbus

METAR: OIZH 031300Z 13012KT CAVOK 14/M02 Q1020 A3014 NOSIG

Time: 17:15 (13:45 UTC)

Forecast

The report was made 2 hours and 35 minutes ago, at 11:10 UTC
Forecast valid from 03 at 12 UTC to 04 at 18 UTC
Wind 10 kt from the North
Visibility: 8000 m
Temporary
from 04 at 06 UTC to 04 at 14 UTC
Wind 22 kt from the West/Southwest
Visibility: 5000 m
sand
Probability 40% :
Temporary
from 04 at 08 UTC to 04 at 12 UTC
Wind 26 kt from the West/Southwest
Visibility: 3000 m
sand

TAF: OIZH 031110Z 0312/0418 01010KT 8000 NSC TEMPO 0406/0414 24022KT 5000 SA PROB40 TEMPO 0408/0412 24026KT 3000 SA

Weather observations and forecasts of more than 4000 airports (METAR and TAF reports).

The available stations are represented by yellow and red dots on the map.

Hover mouse over dot to see the name of the station.

Then click to see weather observations and forecasts.

To change the map : click on the green buttons with a black cross to zoom in, on the green button with a dash to zoom out, or on the green arrows for adjacent maps.


METAR-TAF: